Abaiara, Brazil
Current Conditions -  °F | °C
As of 10:00 PM on Sunday 21 Dec 2014 (Local Time) from SBJU Reporting Station
Few Clouds Few Clouds  
Wind Chill: 84°   Ceiling: Unl
Heat Index: 87°   Visibility: 6mi
Dew Point: 68°   Wind: 2mph
Humidity: 58%   Direction: 280°W
Pressure: 30"   Gusts: NA
Location:  7.36°S, 39.05°W
Report Text: SBJU 220100Z 28002KT 9999 FEW020 29/20 Q1016
Loading
Personal Weather Stations






























Interactive Weather Map New forecast layout! Learn more

10-Day Weather Forecast

Advertisements
Track Severe Weather on mobile